createdAt,value
2023-04-27T00:04:00.509Z,62.85
2023-04-27T00:09:02.356Z,62.34
2023-04-27T00:14:04.367Z,62.33
2023-04-27T00:19:06.811Z,62.32
2023-04-27T00:24:08.753Z,62.53
2023-04-27T00:29:10.529Z,62.79
2023-04-27T00:34:12.310Z,62.67
2023-04-27T00:39:14.347Z,62.87
2023-04-27T00:44:25.387Z,62.34
2023-04-27T00:49:27.857Z,62.25
2023-04-27T00:54:30.337Z,62.66
2023-04-27T00:59:32.183Z,63.29
2023-04-27T01:04:34.065Z,63.05
2023-04-27T01:09:35.895Z,63.91
2023-04-27T01:14:37.807Z,64.30
2023-04-27T01:19:40.198Z,63.45
2023-04-27T01:24:42.023Z,63.28
2023-04-27T01:29:44.545Z,63.78
2023-04-27T01:34:46.398Z,64.12
2023-04-27T01:39:48.218Z,63.72
2023-04-27T01:44:50.303Z,64.20
2023-04-27T01:49:52.316Z,63.98
2023-04-27T01:54:54.098Z,63.88
2023-04-27T01:59:56.084Z,63.70
2023-04-27T02:04:57.893Z,64.15
2023-04-27T02:09:59.623Z,63.76
2023-04-27T02:15:01.396Z,64.04
2023-04-27T02:20:04.221Z,64.17
2023-04-27T02:25:07.220Z,64.04
2023-04-27T02:30:11.721Z,64.20
2023-04-27T02:35:14.168Z,63.54
2023-04-27T02:40:15.971Z,64.08
2023-04-27T02:45:17.963Z,63.80
2023-04-27T02:50:19.917Z,64.24
2023-04-27T02:55:21.765Z,63.95
2023-04-27T03:00:23.855Z,63.50
2023-04-27T03:05:29.006Z,64.15
2023-04-27T03:10:30.865Z,64.11
2023-04-27T03:15:32.712Z,64.09
2023-04-27T03:20:34.454Z,64.37
2023-04-27T03:25:36.249Z,64.63
2023-04-27T03:30:41.164Z,64.50
2023-04-27T03:35:42.938Z,64.72
2023-04-27T03:40:44.732Z,64.76
2023-04-27T03:45:46.760Z,64.70
2023-04-27T03:50:49.186Z,65.21
2023-04-27T03:55:51.427Z,64.82
2023-04-27T04:00:54.547Z,64.39
2023-04-27T04:05:56.423Z,64.77
2023-04-27T04:10:58.233Z,65.44
2023-04-27T04:16:09.373Z,64.85
2023-04-27T04:21:11.302Z,64.74
2023-04-27T04:26:14.927Z,64.29
2023-04-27T04:31:18.276Z,65.51
2023-04-27T04:36:20.153Z,64.89
2023-04-27T04:41:21.955Z,64.09
2023-04-27T04:46:24.689Z,63.72
2023-04-27T04:51:26.662Z,64.06
2023-04-27T04:56:28.524Z,64.05
2023-04-27T05:01:30.441Z,63.70
2023-04-27T05:06:32.268Z,64.16
2023-04-27T05:11:34.061Z,64.24
2023-04-27T05:16:36.032Z,64.05
2023-04-27T05:21:37.896Z,63.81
2023-04-27T05:26:39.853Z,63.85
2023-04-27T05:31:41.677Z,63.00
2023-04-27T05:36:43.776Z,63.08
2023-04-27T05:41:45.523Z,63.13
2023-04-27T05:46:47.294Z,62.58
2023-04-27T05:51:49.186Z,62.42
2023-04-27T05:56:51.145Z,61.90
2023-04-27T06:01:52.967Z,61.06
2023-04-27T06:06:56.360Z,60.05
2023-04-27T06:12:01.841Z,60.22
2023-04-27T06:17:04.635Z,58.13
2023-04-27T06:22:06.519Z,55.69
2023-04-27T06:27:08.381Z,54.95
2023-04-27T06:32:10.274Z,53.16
2023-04-27T06:37:12.261Z,54.05
2023-04-27T06:42:14.282Z,52.48
2023-04-27T06:47:16.170Z,50.37
2023-04-27T06:52:21.185Z,49.62
2023-04-27T06:57:23.023Z,50.39
2023-04-27T07:02:25.678Z,47.70
2023-04-27T07:07:27.723Z,47.50
2023-04-27T07:12:30.098Z,48.28
2023-04-27T07:17:33.071Z,49.41
2023-04-27T07:22:34.900Z,50.08
2023-04-27T07:27:36.764Z,48.60
2023-04-27T07:32:44.076Z,46.10
2023-04-27T07:37:45.884Z,46.29
2023-04-27T07:42:48.139Z,49.14
2023-04-27T07:47:58.872Z,48.88
2023-04-27T07:53:01.062Z,50.48
2023-04-27T07:58:04.757Z,48.36
2023-04-27T08:03:07.982Z,47.06
2023-04-27T08:08:10.149Z,46.31
2023-04-27T08:13:12.116Z,45.39
2023-04-27T08:18:13.930Z,46.19
2023-04-27T08:23:16.738Z,45.65
2023-04-27T08:28:18.469Z,47.33
2023-04-27T08:33:20.639Z,48.64
2023-04-27T08:38:24.296Z,49.69
2023-04-27T08:43:27.539Z,47.53
2023-04-27T08:48:29.697Z,48.73
2023-04-27T08:53:33.292Z,49.29
2023-04-27T08:58:39.335Z,49.27
2023-04-27T09:03:41.322Z,49.01
2023-04-27T09:08:48.835Z,43.07
2023-04-27T09:13:50.587Z,43.67
2023-04-27T09:18:53.247Z,45.36
2023-04-27T09:23:56.750Z,46.08
2023-04-27T09:28:58.735Z,46.34
2023-04-27T09:34:01.374Z,46.48
2023-04-27T09:39:05.026Z,45.86
2023-04-27T09:44:08.955Z,45.78
2023-04-27T09:49:13.924Z,45.83
2023-04-27T09:54:17.179Z,42.14
2023-04-27T09:59:52.679Z,36.62
2023-04-27T10:05:29.691Z,35.22
2023-04-27T10:10:47.035Z,34.56
2023-04-27T10:15:49.058Z,36.25
2023-04-27T10:20:52.700Z,37.98
2023-04-27T10:25:55.763Z,41.43
2023-04-27T10:30:58.043Z,42.85
2023-04-27T10:36:00.439Z,41.17
2023-04-27T10:41:05.392Z,36.43
2023-04-27T10:46:13.719Z,35.58
2023-04-27T10:51:17.626Z,34.01
2023-04-27T10:56:19.585Z,34.42
2023-04-27T11:01:29.442Z,35.59
2023-04-27T11:06:33.465Z,38.12
2023-04-27T11:11:35.411Z,38.09
2023-04-27T11:16:47.075Z,39.03
2023-04-27T11:21:49.088Z,39.15
2023-04-27T11:26:53.894Z,37.99
2023-04-27T11:31:55.772Z,37.98
2023-04-27T11:42:28.692Z,40.50
2023-04-27T11:47:33.524Z,40.21
2023-04-27T11:52:40.141Z,37.02
2023-04-27T11:57:43.160Z,36.24
2023-04-27T12:02:45.107Z,36.59
2023-04-27T12:07:46.983Z,35.24
2023-04-27T12:12:48.803Z,36.04
2023-04-27T12:17:50.832Z,37.43
2023-04-27T12:22:54.904Z,37.95
2023-04-27T12:27:56.719Z,37.91
2023-04-27T12:33:00.664Z,38.15
2023-04-27T12:38:03.409Z,38.56
2023-04-27T12:43:05.552Z,38.73
2023-04-27T12:48:08.031Z,37.65
2023-04-27T12:53:09.912Z,38.10
2023-04-27T12:58:11.849Z,36.88
2023-04-27T13:03:13.884Z,36.99
2023-04-27T13:08:15.960Z,35.35
2023-04-27T13:13:17.756Z,34.59
2023-04-27T13:18:19.794Z,35.63
2023-04-27T13:23:21.621Z,34.05
2023-04-27T13:28:25.075Z,34.45
2023-04-27T13:33:27.143Z,36.66
2023-04-27T13:38:29.173Z,34.54
2023-04-27T13:43:31.758Z,35.16
2023-04-27T13:48:33.610Z,34.47
2023-04-27T13:53:35.361Z,34.25
2023-04-27T13:58:37.403Z,34.93
2023-04-27T14:08:41.427Z,35.15
2023-04-27T14:13:43.184Z,35.89
2023-04-27T14:18:45.012Z,36.09
2023-04-27T14:23:47.117Z,36.21
2023-04-27T14:28:49.045Z,36.42
2023-04-27T14:33:53.715Z,37.16
2023-04-27T14:38:55.532Z,36.72
2023-04-27T14:43:57.355Z,36.99
2023-04-27T14:48:59.276Z,36.59
2023-04-27T14:54:02.315Z,38.00
2023-04-27T14:59:05.432Z,37.48
2023-04-27T15:04:12.104Z,38.20
2023-04-27T15:09:14.236Z,38.51
2023-04-27T15:14:19.896Z,38.46
2023-04-27T15:19:21.668Z,37.08
2023-04-27T15:24:23.447Z,37.55
2023-04-27T15:29:25.746Z,37.85
2023-04-27T15:34:27.611Z,38.02
2023-04-27T15:39:29.684Z,38.10
2023-04-27T15:44:31.472Z,38.20
2023-04-27T15:49:39.887Z,38.48
2023-04-27T15:54:47.987Z,37.85
2023-04-27T15:59:49.833Z,38.07
2023-04-27T16:04:56.389Z,36.71
2023-04-27T16:09:59.844Z,36.55
2023-04-27T16:15:02.091Z,38.93
2023-04-27T16:20:09.406Z,37.16
2023-04-27T16:25:11.642Z,35.59
2023-04-27T16:30:14.671Z,36.08
2023-04-27T16:35:18.172Z,35.94
2023-04-27T16:40:20.880Z,36.19
2023-04-27T16:45:22.672Z,37.02
2023-04-27T16:50:24.651Z,36.36
2023-04-27T16:55:28.388Z,36.57
2023-04-27T17:00:30.436Z,37.06
2023-04-27T17:05:33.299Z,37.52
2023-04-27T17:10:36.667Z,37.60
2023-04-27T17:15:38.934Z,37.52
2023-04-27T17:20:42.207Z,37.38
2023-04-27T17:25:44.134Z,37.07
2023-04-27T17:30:46.001Z,37.42
2023-04-27T17:35:48.069Z,37.44
2023-04-27T17:40:49.966Z,36.84
2023-04-27T17:45:52.203Z,36.49
2023-04-27T17:50:54.234Z,37.59
2023-04-27T17:55:56.293Z,37.47
2023-04-27T18:00:58.255Z,37.91
2023-04-27T18:06:00.134Z,38.09
2023-04-27T18:11:02.060Z,38.23
2023-04-27T18:16:04.398Z,39.01
2023-04-27T18:21:06.790Z,38.73
2023-04-27T18:26:11.003Z,40.65
2023-04-27T18:31:18.545Z,39.48
2023-04-27T18:36:20.833Z,39.85
2023-04-27T18:41:23.700Z,39.53
2023-04-27T18:46:26.058Z,39.79
2023-04-27T18:51:29.393Z,40.23
2023-04-27T18:56:31.631Z,41.44
2023-04-27T19:01:33.716Z,40.75
2023-04-27T19:06:35.851Z,41.63
2023-04-27T19:11:37.655Z,42.08
2023-04-27T19:16:41.440Z,41.83
2023-04-27T19:21:43.610Z,42.83
2023-04-27T19:26:46.744Z,42.15
2023-04-27T19:31:48.585Z,42.98
2023-04-27T19:36:50.605Z,43.19
2023-04-27T19:41:52.360Z,44.61
2023-04-27T19:46:54.116Z,44.16
2023-04-27T19:51:55.860Z,44.86
2023-04-27T19:56:57.709Z,45.54
2023-04-27T20:01:59.640Z,45.62
2023-04-27T20:07:03.286Z,45.84
2023-04-27T20:12:19.404Z,45.68
2023-04-27T20:17:31.381Z,45.94
2023-04-27T20:22:33.287Z,45.82
2023-04-27T20:27:35.921Z,46.35
2023-04-27T20:32:40.123Z,46.90
2023-04-27T20:37:43.427Z,46.80
2023-04-27T20:42:45.767Z,46.62
2023-04-27T20:47:47.857Z,47.55
2023-04-27T20:52:49.709Z,48.04
2023-04-27T20:57:51.438Z,47.74
2023-04-27T21:02:53.454Z,48.14
2023-04-27T21:07:55.470Z,48.95
2023-04-27T21:12:57.285Z,48.84
2023-04-27T21:18:00.512Z,49.67
2023-04-27T21:23:02.365Z,50.20
2023-04-27T21:28:04.446Z,49.77
2023-04-27T21:33:06.950Z,50.05
2023-04-27T21:38:08.862Z,50.71
2023-04-27T21:43:10.751Z,50.54
2023-04-27T21:48:12.520Z,50.63
2023-04-27T21:53:15.797Z,50.87
2023-04-27T21:58:17.710Z,52.30
2023-04-27T22:03:19.778Z,51.96
2023-04-27T22:08:21.716Z,52.94
2023-04-27T22:13:23.510Z,53.60
2023-04-27T22:18:25.311Z,53.38
2023-04-27T22:23:27.221Z,54.02
2023-04-27T22:28:29.004Z,54.77
2023-04-27T22:33:32.481Z,54.41
2023-04-27T22:38:34.223Z,54.51
2023-04-27T22:43:36.326Z,54.65
2023-04-27T22:48:38.084Z,54.61
2023-04-27T22:53:39.876Z,56.25
2023-04-27T22:58:41.659Z,55.30
2023-04-27T23:03:43.613Z,55.86
2023-04-27T23:08:47.004Z,56.65
2023-04-27T23:13:50.518Z,56.03
2023-04-27T23:18:52.906Z,56.58
2023-04-27T23:23:55.050Z,55.52
2023-04-27T23:28:57.403Z,54.37
2023-04-27T23:33:59.442Z,53.96
2023-04-27T23:39:01.211Z,54.55
2023-04-27T23:44:02.952Z,52.32
2023-04-27T23:49:04.855Z,53.85
2023-04-27T23:54:09.629Z,53.57
2023-04-27T23:59:11.633Z,53.58
